createdAt,value
2018-09-09T00:01:34.092Z,10.23
2018-09-09T00:04:01.679Z,11.27
2018-09-09T00:06:29.268Z,9.33
2018-09-09T00:08:56.844Z,10.13
2018-09-09T00:11:24.405Z,9.53
2018-09-09T00:13:51.956Z,9.70
2018-09-09T00:16:19.536Z,9.77
2018-09-09T00:18:47.126Z,9.97
2018-09-09T00:21:14.703Z,8.80
2018-09-09T00:23:42.236Z,8.93
2018-09-09T00:26:09.799Z,8.80
2018-09-09T00:28:37.344Z,9.40
2018-09-09T00:31:04.944Z,10.27
2018-09-09T00:33:32.518Z,10.00
2018-09-09T00:36:00.098Z,10.70
2018-09-09T00:38:27.621Z,9.67
2018-09-09T00:40:55.179Z,10.10
2018-09-09T00:43:22.718Z,11.40
2018-09-09T00:45:50.493Z,9.53
2018-09-09T00:48:18.041Z,9.90
2018-09-09T00:50:51.328Z,10.63
2018-09-09T00:53:50.956Z,9.73
2018-09-09T00:56:18.475Z,10.33
2018-09-09T00:58:45.998Z,10.13
2018-09-09T01:01:14.515Z,10.30
2018-09-09T01:03:42.400Z,9.77
2018-09-09T01:06:09.980Z,10.13
2018-09-09T01:08:37.560Z,8.33
2018-09-09T01:11:05.624Z,8.70
2018-09-09T01:13:33.188Z,10.90
2018-09-09T01:16:00.737Z,9.40
2018-09-09T01:18:28.350Z,9.83
2018-09-09T01:20:55.933Z,9.20
2018-09-09T01:23:23.339Z,9.40
2018-09-09T01:25:50.937Z,9.80
2018-09-09T01:28:18.507Z,9.33
2018-09-09T01:30:46.085Z,9.67
2018-09-09T01:33:13.664Z,9.30
2018-09-09T01:35:41.213Z,10.40
2018-09-09T01:38:08.820Z,10.47
2018-09-09T01:40:36.386Z,10.27
2018-09-09T01:43:03.958Z,9.13
2018-09-09T01:45:31.538Z,9.90
2018-09-09T01:47:59.154Z,9.53
2018-09-09T01:50:26.726Z,10.37
2018-09-09T01:52:54.284Z,8.60
2018-09-09T01:55:21.809Z,9.27
2018-09-09T01:57:49.380Z,9.17
2018-09-09T02:00:16.886Z,8.80
2018-09-09T02:02:44.526Z,9.07
2018-09-09T02:05:12.158Z,8.60
2018-09-09T02:07:39.723Z,9.67
2018-09-09T02:10:07.305Z,9.43
2018-09-09T02:12:34.869Z,9.47
2018-09-09T02:15:02.412Z,9.00
2018-09-09T02:17:30.574Z,8.87
2018-09-09T02:19:58.100Z,8.90
2018-09-09T02:22:25.671Z,8.70
2018-09-09T02:24:53.333Z,8.80
2018-09-09T02:27:20.865Z,8.30
2018-09-09T02:29:48.459Z,9.23
2018-09-09T02:32:16.093Z,7.90
2018-09-09T02:34:43.655Z,7.93
2018-09-09T02:37:11.168Z,8.47
2018-09-09T02:39:38.721Z,10.57
2018-09-09T02:42:06.461Z,9.43
2018-09-09T02:44:34.014Z,8.00
2018-09-09T02:47:01.560Z,8.50
2018-09-09T02:49:29.166Z,8.90
2018-09-09T02:51:56.700Z,9.37
2018-09-09T02:54:24.238Z,9.83
2018-09-09T02:56:51.794Z,9.07
2018-09-09T02:59:19.447Z,9.20
2018-09-09T03:01:46.985Z,8.40
2018-09-09T03:04:14.543Z,7.60
2018-09-09T03:06:42.137Z,7.23
2018-09-09T03:09:09.713Z,7.47
2018-09-09T03:11:37.276Z,7.10
2018-09-09T03:14:04.840Z,7.87
2018-09-09T03:16:32.398Z,8.17
2018-09-09T03:19:00.025Z,6.63
2018-09-09T03:21:27.566Z,7.50
2018-09-09T03:23:55.115Z,7.20
2018-09-09T03:26:22.666Z,7.77
2018-09-09T03:28:50.446Z,8.00
2018-09-09T03:31:17.767Z,8.20
2018-09-09T03:33:45.332Z,7.90
2018-09-09T03:36:12.850Z,7.53
2018-09-09T03:38:40.398Z,7.40
2018-09-09T03:41:07.936Z,8.10
2018-09-09T03:43:35.463Z,9.87
2018-09-09T03:46:03.028Z,8.80
2018-09-09T03:48:30.583Z,8.57
2018-09-09T03:50:58.140Z,7.77
2018-09-09T03:53:25.682Z,8.40
2018-09-09T03:55:53.340Z,8.57
2018-09-09T03:58:20.860Z,7.83
2018-09-09T04:00:48.402Z,7.77
2018-09-09T04:03:15.982Z,8.17
2018-09-09T04:05:43.550Z,7.50
2018-09-09T04:08:11.087Z,7.10
2018-09-09T04:10:38.606Z,8.00
2018-09-09T04:13:06.142Z,8.07
2018-09-09T04:15:33.687Z,7.47
2018-09-09T04:18:01.202Z,9.37
2018-09-09T04:20:28.764Z,8.77
2018-09-09T04:22:56.282Z,7.53
2018-09-09T04:25:23.827Z,7.67
2018-09-09T04:27:51.330Z,8.30
2018-09-09T04:30:18.861Z,7.23
2018-09-09T04:32:46.454Z,8.30
2018-09-09T04:35:14.047Z,8.17
2018-09-09T04:37:41.600Z,8.47
2018-09-09T04:40:09.163Z,7.90
2018-09-09T04:42:36.714Z,10.57
2018-09-09T04:45:04.364Z,9.00
2018-09-09T04:47:31.900Z,8.17
2018-09-09T04:49:59.439Z,7.40
2018-09-09T04:52:26.986Z,6.90
2018-09-09T04:54:54.570Z,6.63
2018-09-09T04:57:22.130Z,6.70
2018-09-09T04:59:49.658Z,6.40
2018-09-09T05:02:17.230Z,6.60
2018-09-09T05:04:44.802Z,6.03
2018-09-09T05:07:12.389Z,6.90
2018-09-09T05:09:39.985Z,6.23
2018-09-09T05:12:07.561Z,6.90
2018-09-09T05:14:35.125Z,6.47
2018-09-09T05:17:02.747Z,6.03
2018-09-09T05:19:30.276Z,6.40
2018-09-09T05:21:57.849Z,6.00
2018-09-09T05:24:25.384Z,7.10
2018-09-09T05:26:53.053Z,7.00
2018-09-09T05:29:20.603Z,6.50
2018-09-09T05:31:48.168Z,6.73
2018-09-09T05:34:15.714Z,6.80
2018-09-09T05:36:43.247Z,7.20
2018-09-09T05:39:11.465Z,6.90
2018-09-09T05:41:39.040Z,7.57
2018-09-09T05:44:06.674Z,7.90
2018-09-09T05:46:34.525Z,7.60
2018-09-09T05:49:02.069Z,6.73
2018-09-09T05:51:29.587Z,7.07
2018-09-09T05:53:57.283Z,7.00
2018-09-09T05:56:24.758Z,6.90
2018-09-09T05:58:52.463Z,7.07
2018-09-09T06:01:20.078Z,7.50
2018-09-09T06:03:47.625Z,7.67
2018-09-09T06:06:15.230Z,6.77
2018-09-09T06:08:42.783Z,7.40
2018-09-09T06:11:10.297Z,7.17
2018-09-09T06:13:37.892Z,9.27
2018-09-09T06:16:05.542Z,8.17
2018-09-09T06:18:33.080Z,7.50
2018-09-09T06:21:00.592Z,8.07
2018-09-09T06:23:28.150Z,7.77
2018-09-09T06:25:55.735Z,8.93
2018-09-09T06:28:23.371Z,8.40
2018-09-09T06:30:50.957Z,7.40
2018-09-09T06:33:18.526Z,8.50
2018-09-09T06:35:46.186Z,7.60
2018-09-09T06:38:13.805Z,7.40
2018-09-09T06:40:41.368Z,8.90
2018-09-09T06:43:08.980Z,7.80
2018-09-09T06:45:36.562Z,8.00
2018-09-09T06:48:04.122Z,8.13
2018-09-09T06:50:31.689Z,8.67
2018-09-09T06:52:59.233Z,7.50
2018-09-09T06:55:26.828Z,7.93
2018-09-09T06:57:54.338Z,8.30
2018-09-09T07:00:21.993Z,8.20
2018-09-09T07:02:49.589Z,8.03
2018-09-09T07:05:17.168Z,9.87
2018-09-09T07:07:45.734Z,9.13
2018-09-09T07:10:13.269Z,10.33
2018-09-09T07:12:40.828Z,9.73
2018-09-09T07:15:08.533Z,9.90
2018-09-09T07:17:36.113Z,9.60
2018-09-09T07:20:03.724Z,9.93
2018-09-09T07:22:31.296Z,8.40
2018-09-09T07:24:58.842Z,8.23
2018-09-09T07:27:26.403Z,7.43
2018-09-09T07:29:53.978Z,9.20
2018-09-09T07:32:21.579Z,8.30
2018-09-09T07:34:49.132Z,7.80
2018-09-09T07:37:16.921Z,8.77
2018-09-09T07:39:44.519Z,9.97
2018-09-09T07:42:12.079Z,9.10
2018-09-09T07:44:39.641Z,10.63
2018-09-09T07:47:07.211Z,10.93
2018-09-09T07:49:34.737Z,9.80
2018-09-09T07:52:02.346Z,10.00
2018-09-09T07:54:30.018Z,9.57
2018-09-09T07:56:57.588Z,9.57
2018-09-09T07:59:25.127Z,9.63
2018-09-09T08:01:52.670Z,11.57
2018-09-09T08:04:20.278Z,10.20
2018-09-09T08:06:47.819Z,9.93
2018-09-09T08:09:15.401Z,10.00
2018-09-09T08:11:42.964Z,10.60
2018-09-09T08:14:10.773Z,8.27
2018-09-09T08:16:38.485Z,9.37
2018-09-09T08:19:06.119Z,9.33
2018-09-09T08:21:34.285Z,9.53
2018-09-09T08:24:01.855Z,10.50
2018-09-09T08:26:29.427Z,7.40
2018-09-09T08:28:57.041Z,7.90
2018-09-09T08:31:26.681Z,8.10
2018-09-09T08:33:54.272Z,7.80
2018-09-09T08:36:21.824Z,9.40
2018-09-09T08:38:49.444Z,9.47
2018-09-09T08:41:17.032Z,8.70
2018-09-09T08:43:44.622Z,10.20
2018-09-09T08:46:12.207Z,9.03
2018-09-09T08:48:39.791Z,11.20
2018-09-09T08:51:07.345Z,10.83
2018-09-09T08:53:34.908Z,10.80
2018-09-09T08:56:02.551Z,11.13
2018-09-09T08:58:30.148Z,9.27
2018-09-09T09:00:57.761Z,10.47
2018-09-09T09:03:25.322Z,10.13
2018-09-09T09:05:52.879Z,9.13
2018-09-09T09:08:20.430Z,11.10
2018-09-09T09:10:47.967Z,9.70
2018-09-09T09:13:15.585Z,11.07
2018-09-09T09:15:43.173Z,11.63
2018-09-09T09:18:10.746Z,10.80
2018-09-09T09:20:38.437Z,10.60
2018-09-09T09:23:06.031Z,11.00
2018-09-09T09:25:33.607Z,9.83
2018-09-09T09:28:01.154Z,10.80
2018-09-09T09:30:28.784Z,10.93
2018-09-09T09:32:56.330Z,10.50
2018-09-09T09:35:29.486Z,12.63
2018-09-09T09:37:57.014Z,14.07
2018-09-09T09:40:24.584Z,18.50
2018-09-09T09:42:52.158Z,13.57
2018-09-09T09:45:19.762Z,16.73
2018-09-09T09:47:47.431Z,12.43
2018-09-09T09:50:15.034Z,10.60
2018-09-09T09:52:42.609Z,11.20
2018-09-09T09:55:10.255Z,10.37
2018-09-09T09:57:37.776Z,10.73
2018-09-09T10:00:05.450Z,14.30
2018-09-09T10:02:33.142Z,9.40
2018-09-09T10:05:00.673Z,9.30
2018-09-09T10:07:28.255Z,9.87
2018-09-09T10:09:55.791Z,10.57
2018-09-09T10:12:23.359Z,9.30
2018-09-09T10:14:50.988Z,7.13
2018-09-09T10:17:18.555Z,9.20
2018-09-09T10:19:46.095Z,8.43
2018-09-09T10:22:13.660Z,8.60
2018-09-09T10:24:41.227Z,7.20
2018-09-09T10:27:08.795Z,6.70
2018-09-09T10:29:36.369Z,6.60
2018-09-09T10:32:03.989Z,8.30
2018-09-09T10:34:31.558Z,6.57
2018-09-09T10:36:59.135Z,6.20
2018-09-09T10:39:26.725Z,7.13
2018-09-09T10:41:54.288Z,6.83
2018-09-09T10:44:21.849Z,6.10
2018-09-09T10:46:49.415Z,5.57
2018-09-09T10:49:16.979Z,7.27
2018-09-09T10:51:44.597Z,5.70
2018-09-09T10:54:12.173Z,4.73
2018-09-09T10:56:39.726Z,5.67
2018-09-09T10:59:07.329Z,5.40
2018-09-09T11:01:34.920Z,6.30
2018-09-09T11:04:02.518Z,5.60
2018-09-09T11:06:36.633Z,6.50
2018-09-09T11:09:05.259Z,7.20
2018-09-09T11:11:32.799Z,5.20
2018-09-09T11:14:00.349Z,5.50
2018-09-09T11:16:27.885Z,5.77
2018-09-09T11:18:55.542Z,5.70
2018-09-09T11:21:23.071Z,6.30
2018-09-09T11:23:50.643Z,4.70
2018-09-09T11:26:18.181Z,5.90
2018-09-09T11:28:46.534Z,5.73
2018-09-09T11:31:14.074Z,5.37
2018-09-09T11:33:41.689Z,5.10
2018-09-09T11:36:09.286Z,6.60
2018-09-09T11:38:36.871Z,4.43
2018-09-09T11:41:04.485Z,5.27
2018-09-09T11:43:32.099Z,5.10
2018-09-09T11:45:59.714Z,5.23
2018-09-09T11:48:27.324Z,4.10
2018-09-09T11:50:54.916Z,4.67
2018-09-09T11:53:22.516Z,4.50
2018-09-09T11:55:50.200Z,5.27
2018-09-09T11:58:17.791Z,5.10
2018-09-09T12:00:45.422Z,5.10
2018-09-09T12:03:12.998Z,5.00
2018-09-09T12:05:40.583Z,3.90
2018-09-09T12:08:09.020Z,3.60
2018-09-09T12:10:36.604Z,3.17
2018-09-09T12:13:04.288Z,4.60
2018-09-09T12:15:31.848Z,3.40
2018-09-09T12:17:59.444Z,3.20
2018-09-09T12:20:27.036Z,3.47
2018-09-09T12:22:54.577Z,3.60
2018-09-09T12:25:22.176Z,3.50
2018-09-09T12:27:49.803Z,3.27
2018-09-09T12:30:17.358Z,3.30
2018-09-09T12:32:44.983Z,3.60
2018-09-09T12:35:12.533Z,3.43
2018-09-09T12:37:40.175Z,3.93
2018-09-09T12:40:07.738Z,3.50
2018-09-09T12:42:35.305Z,3.87
2018-09-09T12:45:08.436Z,3.50
2018-09-09T12:47:41.691Z,3.40
2018-09-09T12:50:09.275Z,3.10
2018-09-09T12:52:36.867Z,4.30
2018-09-09T12:55:04.575Z,3.80
2018-09-09T12:57:32.103Z,4.13
2018-09-09T12:59:59.744Z,3.80
2018-09-09T13:02:27.427Z,3.10
2018-09-09T13:04:55.003Z,2.97
2018-09-09T13:07:22.559Z,3.33
2018-09-09T13:09:50.126Z,3.73
2018-09-09T13:12:17.693Z,4.00
2018-09-09T13:14:45.306Z,4.10
2018-09-09T13:17:12.872Z,3.70
2018-09-09T13:19:40.427Z,3.63
2018-09-09T13:22:08.148Z,3.73
2018-09-09T13:24:35.701Z,3.47
2018-09-09T13:27:03.252Z,3.50
2018-09-09T13:29:30.825Z,4.03
2018-09-09T13:31:58.431Z,3.57
2018-09-09T13:34:25.989Z,3.70
2018-09-09T13:36:53.558Z,3.93
2018-09-09T13:39:21.137Z,4.00
2018-09-09T13:41:48.730Z,3.90
2018-09-09T13:44:16.547Z,3.30
2018-09-09T13:46:44.178Z,3.53
2018-09-09T13:49:11.795Z,3.47
2018-09-09T13:51:39.583Z,3.83
2018-09-09T13:54:07.170Z,3.47
2018-09-09T13:56:34.719Z,4.03
2018-09-09T13:59:02.363Z,4.27
2018-09-09T14:01:29.961Z,4.40
2018-09-09T14:03:57.692Z,4.10
2018-09-09T14:06:25.239Z,3.67
2018-09-09T14:08:52.880Z,3.97
2018-09-09T14:11:20.449Z,4.00
2018-09-09T14:13:48.002Z,3.77
2018-09-09T14:16:15.598Z,3.80
2018-09-09T14:18:43.227Z,4.10
2018-09-09T14:21:10.828Z,3.73
2018-09-09T14:23:38.413Z,3.57
2018-09-09T14:26:06.101Z,3.60
2018-09-09T14:28:33.702Z,3.63
2018-09-09T14:31:01.293Z,3.50
2018-09-09T14:33:28.898Z,3.77
2018-09-09T14:35:56.490Z,3.03
2018-09-09T14:38:24.127Z,6.10
2018-09-09T14:40:51.738Z,4.00
2018-09-09T14:43:19.319Z,3.67
2018-09-09T14:45:46.922Z,4.57
2018-09-09T14:48:14.478Z,3.90
2018-09-09T14:50:42.092Z,3.93
2018-09-09T14:53:09.642Z,4.73
2018-09-09T14:55:37.251Z,3.73
2018-09-09T14:58:04.896Z,3.20
2018-09-09T15:00:32.583Z,4.60
2018-09-09T15:03:00.139Z,3.57
2018-09-09T15:05:27.796Z,4.73
2018-09-09T15:07:55.440Z,5.50
2018-09-09T15:10:23.024Z,3.97
2018-09-09T15:12:50.599Z,4.17
2018-09-09T15:15:18.217Z,3.90
2018-09-09T15:17:45.781Z,4.70
2018-09-09T15:20:13.330Z,4.03
2018-09-09T15:22:40.939Z,3.87
2018-09-09T15:25:08.535Z,3.73
2018-09-09T15:27:36.193Z,3.80
2018-09-09T15:30:04.531Z,4.17
2018-09-09T15:32:32.170Z,4.20
2018-09-09T15:34:59.763Z,4.90
2018-09-09T15:37:27.388Z,4.10
2018-09-09T15:39:55.231Z,4.87
2018-09-09T15:42:22.808Z,4.40
2018-09-09T15:44:50.355Z,4.63
2018-09-09T15:47:17.899Z,4.77
2018-09-09T15:49:45.612Z,5.63
2018-09-09T15:52:13.261Z,4.37
2018-09-09T15:54:40.748Z,4.50
2018-09-09T15:57:08.302Z,4.87
2018-09-09T15:59:35.922Z,4.60
2018-09-09T16:02:03.598Z,4.30
2018-09-09T16:04:31.153Z,5.10
2018-09-09T16:06:58.763Z,4.00
2018-09-09T16:09:26.395Z,3.77
2018-09-09T16:11:54.044Z,4.40
2018-09-09T16:14:21.546Z,4.27
2018-09-09T16:16:49.150Z,3.90
2018-09-09T16:19:17.455Z,4.00
2018-09-09T16:21:45.054Z,5.07
2018-09-09T16:24:12.672Z,5.10
2018-09-09T16:26:40.287Z,4.37
2018-09-09T16:29:07.858Z,4.90
2018-09-09T16:31:35.452Z,4.20
2018-09-09T16:34:03.019Z,4.67
2018-09-09T16:36:30.726Z,5.20
2018-09-09T16:38:58.346Z,4.37
2018-09-09T16:41:26.057Z,4.60
2018-09-09T16:43:53.796Z,4.50
2018-09-09T16:46:21.446Z,4.93
2018-09-09T16:48:49.466Z,5.27
2018-09-09T16:51:17.047Z,5.00
2018-09-09T16:53:44.694Z,4.60
2018-09-09T16:56:12.351Z,4.37
2018-09-09T16:58:39.958Z,5.03
2018-09-09T17:01:07.689Z,4.63
2018-09-09T17:03:35.600Z,4.70
2018-09-09T17:06:03.254Z,5.10
2018-09-09T17:08:30.884Z,5.30
2018-09-09T17:10:58.557Z,4.43
2018-09-09T17:13:26.288Z,5.10
2018-09-09T17:15:54.038Z,4.10
2018-09-09T17:18:21.748Z,4.40
2018-09-09T17:20:49.451Z,4.73
2018-09-09T17:23:17.125Z,4.87
2018-09-09T17:25:44.778Z,5.17
2018-09-09T17:28:12.410Z,4.90
2018-09-09T17:30:40.326Z,4.67
2018-09-09T17:33:08.471Z,5.63
2018-09-09T17:35:36.448Z,4.70
2018-09-09T17:38:04.147Z,4.90
2018-09-09T17:40:31.833Z,5.17
2018-09-09T17:42:59.657Z,5.37
2018-09-09T17:45:27.513Z,4.83
2018-09-09T17:47:55.225Z,5.53
2018-09-09T17:50:22.907Z,4.70
2018-09-09T17:52:50.792Z,5.00
2018-09-09T17:55:18.474Z,5.57
2018-09-09T17:57:46.247Z,4.90
2018-09-09T18:00:14.313Z,5.50
2018-09-09T18:02:42.081Z,6.10
2018-09-09T18:05:11.134Z,5.33
2018-09-09T18:07:38.782Z,5.53
2018-09-09T18:10:06.783Z,5.20
2018-09-09T18:12:34.491Z,5.63
2018-09-09T18:15:03.180Z,5.40
2018-09-09T18:17:30.952Z,5.50
2018-09-09T18:19:58.632Z,5.07
2018-09-09T18:22:26.260Z,4.93
2018-09-09T18:24:55.497Z,5.60
2018-09-09T18:27:24.182Z,5.70
2018-09-09T18:29:51.887Z,6.50
2018-09-09T18:32:19.576Z,6.43
2018-09-09T18:34:47.660Z,6.17
2018-09-09T18:37:15.339Z,6.17
2018-09-09T18:39:43.038Z,5.27
2018-09-09T18:42:10.818Z,6.73
2018-09-09T18:44:38.454Z,6.50
2018-09-09T18:47:06.304Z,6.10
2018-09-09T18:49:34.301Z,5.57
2018-09-09T18:52:02.052Z,5.80
2018-09-09T18:54:29.727Z,6.90
2018-09-09T18:56:57.455Z,6.10
2018-09-09T18:59:25.414Z,6.53
2018-09-09T19:01:53.186Z,5.80
2018-09-09T19:04:22.147Z,5.27
2018-09-09T19:06:49.873Z,5.93
2018-09-09T19:09:18.017Z,6.33
2018-09-09T19:11:45.829Z,6.87
2018-09-09T19:14:15.114Z,6.80
2018-09-09T19:16:42.965Z,6.90
2018-09-09T19:19:10.917Z,6.20
2018-09-09T19:21:38.699Z,6.90
2018-09-09T19:24:07.514Z,6.10
2018-09-09T19:26:35.917Z,6.40
2018-09-09T19:29:05.131Z,7.43
2018-09-09T19:31:32.897Z,6.77
2018-09-09T19:34:00.713Z,7.00
2018-09-09T19:36:28.783Z,7.07
2018-09-09T19:38:56.629Z,7.27
2018-09-09T19:41:25.072Z,6.43
2018-09-09T19:43:52.820Z,6.53
2018-09-09T19:46:20.550Z,6.00
2018-09-09T19:48:48.421Z,6.13
2018-09-09T19:51:16.835Z,6.57
2018-09-09T19:53:45.266Z,6.00
2018-09-09T19:56:13.023Z,6.10
2018-09-09T19:58:40.722Z,6.20
2018-09-09T20:01:08.591Z,6.97
2018-09-09T20:03:37.351Z,6.27
2018-09-09T20:06:05.099Z,6.10
2018-09-09T20:08:33.684Z,7.47
2018-09-09T20:11:01.441Z,7.20
2018-09-09T20:13:29.140Z,6.83
2018-09-09T20:15:57.499Z,7.20
2018-09-09T20:18:26.026Z,6.97
2018-09-09T20:20:53.757Z,7.30
2018-09-09T20:23:21.765Z,7.13
2018-09-09T20:25:49.488Z,6.77
2018-09-09T20:28:17.256Z,7.00
2018-09-09T20:30:44.933Z,7.70
2018-09-09T20:33:12.865Z,7.67
2018-09-09T20:35:40.520Z,8.00
2018-09-09T20:38:08.973Z,6.40
2018-09-09T20:40:36.698Z,7.33
2018-09-09T20:43:04.448Z,6.43
2018-09-09T20:45:32.143Z,6.30
2018-09-09T20:47:59.858Z,7.40
2018-09-09T20:50:28.070Z,6.43
2018-09-09T20:52:56.025Z,7.40
2018-09-09T20:55:23.646Z,7.70
2018-09-09T20:57:51.384Z,6.80
2018-09-09T21:00:19.123Z,7.17
2018-09-09T21:02:46.754Z,7.27
2018-09-09T21:05:14.457Z,7.30
2018-09-09T21:07:42.106Z,7.33
2018-09-09T21:10:09.779Z,8.00
2018-09-09T21:12:37.367Z,8.00
2018-09-09T21:15:06.235Z,8.50
2018-09-09T21:17:34.354Z,8.30
2018-09-09T21:20:02.445Z,7.80
2018-09-09T21:22:30.313Z,8.43
2018-09-09T21:24:57.962Z,7.90
2018-09-09T21:27:25.784Z,8.67
2018-09-09T21:29:53.381Z,8.63
2018-09-09T21:32:20.998Z,9.87
2018-09-09T21:34:48.583Z,8.23
2018-09-09T21:37:16.238Z,8.47
2018-09-09T21:39:43.861Z,8.47
2018-09-09T21:42:11.426Z,9.57
2018-09-09T21:44:38.968Z,8.80
2018-09-09T21:47:06.627Z,9.30
2018-09-09T21:49:34.865Z,9.37
2018-09-09T21:52:02.489Z,9.80
2018-09-09T21:54:30.219Z,8.27
2018-09-09T21:56:57.782Z,8.63
2018-09-09T21:59:25.333Z,8.87
2018-09-09T22:01:58.583Z,9.27
2018-09-09T22:04:26.163Z,8.63
2018-09-09T22:06:53.747Z,10.20
2018-09-09T22:09:21.378Z,8.77
2018-09-09T22:11:48.926Z,11.77
2018-09-09T22:14:16.501Z,10.77
2018-09-09T22:16:44.129Z,10.27
2018-09-09T22:19:11.721Z,10.60
2018-09-09T22:21:39.377Z,10.37
2018-09-09T22:24:06.957Z,10.60
2018-09-09T22:26:34.591Z,10.47
2018-09-09T22:29:02.146Z,12.70
2018-09-09T22:31:30.474Z,12.00
2018-09-09T22:33:58.098Z,11.40
2018-09-09T22:36:25.654Z,12.13
2018-09-09T22:38:53.240Z,10.43
2018-09-09T22:41:20.840Z,10.47
2018-09-09T22:43:48.428Z,11.10
2018-09-09T22:46:16.728Z,10.00
2018-09-09T22:48:44.314Z,10.80
2018-09-09T22:51:11.910Z,10.20
2018-09-09T22:53:39.470Z,9.80
2018-09-09T22:56:07.050Z,10.30
2018-09-09T22:58:34.627Z,10.73
2018-09-09T23:01:02.246Z,9.87
2018-09-09T23:03:29.842Z,11.17
2018-09-09T23:05:57.384Z,11.63
2018-09-09T23:08:25.026Z,9.97
2018-09-09T23:10:52.608Z,10.03
2018-09-09T23:13:20.175Z,12.00
2018-09-09T23:15:47.714Z,11.13
2018-09-09T23:18:15.270Z,11.20
2018-09-09T23:20:42.838Z,11.50
2018-09-09T23:23:10.881Z,11.50
2018-09-09T23:25:38.434Z,10.57
2018-09-09T23:28:06.112Z,10.23
2018-09-09T23:30:33.670Z,11.30
2018-09-09T23:33:01.242Z,9.70
2018-09-09T23:35:28.871Z,10.57
2018-09-09T23:37:56.377Z,10.13
2018-09-09T23:40:23.954Z,11.13
2018-09-09T23:42:51.477Z,11.03
2018-09-09T23:45:19.073Z,9.80
2018-09-09T23:47:46.666Z,9.80
2018-09-09T23:50:14.188Z,9.90
2018-09-09T23:52:41.778Z,9.40
2018-09-09T23:55:09.338Z,10.70
2018-09-09T23:57:36.918Z,10.90
